createdAt,value
2019-04-26T00:00:07.517Z,78.20
2019-04-26T00:01:07.549Z,78.61
2019-04-26T00:02:07.433Z,78.52
2019-04-26T00:03:06.552Z,78.00
2019-04-26T00:04:06.534Z,78.11
2019-04-26T00:05:06.513Z,78.55
2019-04-26T00:06:06.599Z,78.34
2019-04-26T00:07:06.491Z,78.14
2019-04-26T00:08:06.475Z,78.31
2019-04-26T00:09:06.474Z,78.52
2019-04-26T00:10:06.455Z,78.86
2019-04-26T00:11:06.683Z,78.55
2019-04-26T00:12:06.434Z,78.14
2019-04-26T00:13:06.428Z,78.34
2019-04-26T00:14:06.409Z,78.45
2019-04-26T00:15:06.445Z,79.02
2019-04-26T00:16:06.754Z,78.31
2019-04-26T00:17:06.390Z,78.00
2019-04-26T00:18:06.374Z,77.90
2019-04-26T00:19:06.379Z,77.80
2019-04-26T00:20:06.360Z,77.90
2019-04-26T00:21:06.349Z,77.83
2019-04-26T00:22:06.756Z,77.94
2019-04-26T00:23:06.312Z,78.45
2019-04-26T00:24:06.306Z,78.11
2019-04-26T00:25:06.285Z,77.80
2019-04-26T00:26:06.291Z,77.70
2019-04-26T00:27:06.756Z,78.04
2019-04-26T00:28:06.251Z,78.04
2019-04-26T00:29:06.261Z,78.55
2019-04-26T00:30:06.227Z,78.96
2019-04-26T00:31:06.230Z,78.65
2019-04-26T00:32:06.240Z,78.55
2019-04-26T00:33:06.211Z,78.65
2019-04-26T00:34:06.215Z,78.96
2019-04-26T00:35:06.202Z,78.11
2019-04-26T00:36:06.175Z,78.55
2019-04-26T00:37:06.261Z,78.55
2019-04-26T00:38:06.160Z,78.65
2019-04-26T00:39:06.156Z,78.24
2019-04-26T00:40:06.140Z,79.57
2019-04-26T00:41:06.116Z,78.96
2019-04-26T00:42:06.362Z,79.68
2019-04-26T00:43:06.091Z,80.19
2019-04-26T00:44:06.103Z,80.02
2019-04-26T00:45:06.079Z,80.22
2019-04-26T00:46:06.063Z,80.63
2019-04-26T00:47:06.421Z,80.02
2019-04-26T00:48:06.031Z,80.22
2019-04-26T00:49:06.031Z,80.22
2019-04-26T00:50:06.018Z,80.49
2019-04-26T00:51:06.010Z,80.19
2019-04-26T00:52:06.427Z,80.08
2019-04-26T00:53:05.984Z,80.22
2019-04-26T00:54:05.992Z,80.08
2019-04-26T00:55:05.962Z,79.78
2019-04-26T00:56:05.972Z,79.78
2019-04-26T00:57:06.416Z,79.88
2019-04-26T00:58:05.935Z,79.37
2019-04-26T00:59:05.948Z,79.57
2019-04-26T01:00:05.937Z,79.27
2019-04-26T01:01:05.886Z,79.57
2019-04-26T01:02:05.948Z,79.27
2019-04-26T01:03:05.886Z,79.30
2019-04-26T01:04:05.891Z,79.20
2019-04-26T01:05:05.846Z,79.98
2019-04-26T01:06:05.863Z,79.06
2019-04-26T01:07:05.936Z,79.37
2019-04-26T01:08:05.831Z,79.37
2019-04-26T01:09:05.804Z,79.57
2019-04-26T01:10:05.794Z,78.96
2019-04-26T01:11:05.778Z,78.75
2019-04-26T01:12:05.771Z,78.86
2019-04-26T01:13:06.015Z,79.16
2019-04-26T01:14:05.752Z,78.34
2019-04-26T01:15:05.723Z,78.59
2019-04-26T01:16:05.733Z,78.59
2019-04-26T01:17:05.711Z,78.89
2019-04-26T01:18:06.083Z,79.00
2019-04-26T01:19:05.714Z,79.61
2019-04-26T01:20:05.680Z,79.71
2019-04-26T01:21:05.680Z,79.61
2019-04-26T01:22:05.673Z,79.41
2019-04-26T01:23:06.055Z,79.10
2019-04-26T01:24:05.649Z,78.28
2019-04-26T01:25:05.641Z,78.79
2019-04-26T01:26:05.625Z,78.28
2019-04-26T01:27:05.620Z,77.97
2019-04-26T01:28:06.074Z,78.08
2019-04-26T01:29:05.581Z,78.38
2019-04-26T01:30:05.583Z,78.49
2019-04-26T01:31:05.574Z,78.28
2019-04-26T01:32:05.550Z,78.89
2019-04-26T01:33:05.575Z,78.79
2019-04-26T01:34:05.545Z,78.89
2019-04-26T01:35:05.525Z,78.79
2019-04-26T01:36:12.812Z,79.91
2019-04-26T01:37:06.499Z,79.71
2019-04-26T01:38:05.556Z,79.20
2019-04-26T01:39:05.480Z,80.12
2019-04-26T01:40:05.475Z,80.43
2019-04-26T01:41:05.469Z,81.24
2019-04-26T01:42:05.445Z,80.63
2019-04-26T01:43:05.650Z,81.38
2019-04-26T01:44:05.425Z,81.59
2019-04-26T01:45:05.420Z,82.07
2019-04-26T01:46:05.389Z,83.33
2019-04-26T01:47:05.387Z,83.33
2019-04-26T01:48:05.735Z,82.62
2019-04-26T01:49:05.377Z,83.95
2019-04-26T01:50:05.402Z,84.46
2019-04-26T01:51:05.397Z,84.80
2019-04-26T01:52:05.338Z,85.63
2019-04-26T01:53:05.735Z,85.52
2019-04-26T01:54:05.311Z,85.72
2019-04-26T01:55:05.309Z,86.14
2019-04-26T01:56:05.331Z,86.55
2019-04-26T01:57:05.293Z,86.69
2019-04-26T01:58:05.736Z,86.28
2019-04-26T01:59:05.252Z,86.48
2019-04-26T02:00:05.246Z,85.97
2019-04-26T02:01:05.233Z,86.79
2019-04-26T02:02:05.221Z,86.38
2019-04-26T02:03:05.732Z,86.58
2019-04-26T02:04:05.218Z,86.38
2019-04-26T02:05:05.190Z,86.99
2019-04-26T02:06:05.174Z,86.69
2019-04-26T02:07:05.171Z,87.41
2019-04-26T02:08:05.223Z,86.99
2019-04-26T02:09:05.160Z,86.99
2019-04-26T02:10:05.156Z,86.90
2019-04-26T02:11:05.124Z,87.10
2019-04-26T02:12:05.120Z,86.38
2019-04-26T02:13:05.299Z,86.58
2019-04-26T02:14:05.088Z,87.30
2019-04-26T02:15:05.086Z,86.58
2019-04-26T02:16:05.078Z,86.38
2019-04-26T02:17:05.051Z,86.28
2019-04-26T02:18:05.332Z,86.28
2019-04-26T02:19:05.048Z,85.77
2019-04-26T02:20:05.041Z,86.48
2019-04-26T02:21:05.030Z,86.38
2019-04-26T02:22:05.001Z,86.69
2019-04-26T02:23:05.001Z,86.38
2019-04-26T02:24:05.382Z,85.97
2019-04-26T02:25:04.972Z,86.28
2019-04-26T02:26:04.978Z,85.87
2019-04-26T02:27:04.951Z,86.28
2019-04-26T02:28:04.942Z,86.28
2019-04-26T02:29:05.359Z,86.18
2019-04-26T02:30:04.957Z,86.28
2019-04-26T02:31:04.905Z,86.07
2019-04-26T02:32:04.903Z,86.48
2019-04-26T02:33:04.896Z,86.79
2019-04-26T02:34:05.396Z,86.99
2019-04-26T02:35:04.905Z,86.90
2019-04-26T02:36:04.849Z,86.48
2019-04-26T02:37:04.886Z,86.18
2019-04-26T02:38:04.840Z,85.97
2019-04-26T02:39:04.890Z,86.48
2019-04-26T02:40:04.813Z,86.69
2019-04-26T02:41:04.809Z,86.48
2019-04-26T02:42:04.781Z,87.20
2019-04-26T02:43:04.785Z,87.61
2019-04-26T02:44:04.778Z,86.99
2019-04-26T02:45:04.752Z,86.79
2019-04-26T02:46:04.734Z,86.90
2019-04-26T02:47:04.730Z,87.30
2019-04-26T02:48:04.724Z,87.10
2019-04-26T02:49:04.994Z,86.58
2019-04-26T02:50:04.695Z,87.20
2019-04-26T02:51:04.707Z,87.71
2019-04-26T02:52:04.706Z,88.33
2019-04-26T02:53:04.693Z,88.74
2019-04-26T02:54:05.030Z,89.04
2019-04-26T02:55:04.659Z,88.74
2019-04-26T02:56:04.633Z,89.04
2019-04-26T02:57:04.619Z,88.84
2019-04-26T02:58:04.600Z,88.74
2019-04-26T02:59:05.049Z,89.04
2019-04-26T03:00:04.583Z,89.25
2019-04-26T03:01:04.574Z,88.74
2019-04-26T03:02:04.583Z,88.64
2019-04-26T03:03:04.545Z,88.84
2019-04-26T03:04:04.655Z,89.15
2019-04-26T03:05:04.524Z,89.15
2019-04-26T03:06:04.523Z,89.36
2019-04-26T03:07:04.525Z,89.66
2019-04-26T03:08:04.475Z,90.07
2019-04-26T03:09:04.557Z,90.17
2019-04-26T03:10:04.499Z,90.07
2019-04-26T03:11:04.481Z,89.66
2019-04-26T03:12:04.454Z,88.64
2019-04-26T03:13:04.440Z,88.84
2019-04-26T03:14:04.524Z,89.36
2019-04-26T03:15:13.568Z,89.87
2019-04-26T03:16:05.427Z,89.97
2019-04-26T03:17:04.429Z,89.87
2019-04-26T03:18:04.374Z,89.97
2019-04-26T03:19:04.621Z,87.96
2019-04-26T03:20:04.372Z,88.27
2019-04-26T03:21:04.361Z,88.68
2019-04-26T03:22:04.351Z,89.19
2019-04-26T03:23:04.311Z,89.29
2019-04-26T03:24:04.714Z,89.29
2019-04-26T03:25:04.315Z,87.96
2019-04-26T03:26:04.309Z,86.52
2019-04-26T03:27:04.293Z,87.04
2019-04-26T03:28:04.282Z,87.96
2019-04-26T03:29:04.287Z,87.45
2019-04-26T03:30:18.262Z,87.76
2019-04-26T03:31:05.254Z,88.06
2019-04-26T03:32:04.264Z,89.09
2019-04-26T03:33:04.330Z,89.70
2019-04-26T03:34:04.313Z,89.90
2019-04-26T03:35:04.686Z,90.11
2019-04-26T03:36:04.257Z,89.81
2019-04-26T03:37:19.713Z,89.70
2019-04-26T03:38:05.188Z,89.29
2019-04-26T03:39:04.186Z,88.98
2019-04-26T03:40:04.178Z,88.06
2019-04-26T03:41:04.157Z,87.45
2019-04-26T03:42:04.119Z,87.76
2019-04-26T03:43:04.111Z,88.37
2019-04-26T03:44:04.092Z,88.47
2019-04-26T03:45:04.278Z,88.57
2019-04-26T03:46:04.109Z,88.27
2019-04-26T03:47:04.070Z,88.82
2019-04-26T03:48:04.058Z,89.54
2019-04-26T03:49:04.090Z,89.64
2019-04-26T03:50:04.288Z,90.01
2019-04-26T03:51:04.026Z,90.42
2019-04-26T03:52:04.027Z,90.93
2019-04-26T03:53:04.011Z,91.44
2019-04-26T03:54:03.994Z,91.75
2019-04-26T03:55:04.362Z,92.06
2019-04-26T03:56:03.971Z,92.06
2019-04-26T03:57:03.961Z,91.75
2019-04-26T03:58:03.939Z,91.03
2019-04-26T03:59:03.941Z,91.14
2019-04-26T04:00:04.344Z,91.86
2019-04-26T04:01:03.946Z,92.06
2019-04-26T04:02:03.918Z,92.06
2019-04-26T04:03:03.877Z,92.27
2019-04-26T04:04:03.887Z,92.57
2019-04-26T04:05:04.369Z,93.08
2019-04-26T04:06:03.858Z,93.39
2019-04-26T04:07:05.101Z,93.60
2019-04-26T04:08:03.854Z,93.60
2019-04-26T04:09:03.830Z,93.49
2019-04-26T04:10:03.842Z,93.39
2019-04-26T04:11:03.799Z,92.78
2019-04-26T04:12:11.485Z,92.41
2019-04-26T04:13:04.942Z,91.59
2019-04-26T04:14:03.893Z,91.69
2019-04-26T04:15:04.005Z,92.51
2019-04-26T04:16:03.757Z,93.13
2019-04-26T04:17:03.735Z,93.29
2019-04-26T04:18:03.721Z,93.02
2019-04-26T04:19:03.723Z,91.59
2019-04-26T04:20:03.711Z,92.00
2019-04-26T04:21:04.011Z,92.21
2019-04-26T04:22:03.773Z,93.02
2019-04-26T04:23:03.673Z,93.33
2019-04-26T04:24:03.651Z,93.23
2019-04-26T04:25:03.666Z,93.23
2019-04-26T04:26:04.015Z,93.33
2019-04-26T04:27:03.629Z,92.97
2019-04-26T04:28:03.629Z,93.27
2019-04-26T04:29:03.608Z,93.48
2019-04-26T04:30:03.589Z,93.48
2019-04-26T04:31:04.039Z,93.68
2019-04-26T04:32:03.568Z,93.89
2019-04-26T04:33:03.568Z,94.10
2019-04-26T04:34:03.560Z,94.05
2019-04-26T04:35:06.573Z,94.36
2019-04-26T04:36:04.027Z,94.87
2019-04-26T04:37:03.520Z,95.07
2019-04-26T04:38:09.294Z,95.12
2019-04-26T04:39:12.293Z,95.02
2019-04-26T04:40:04.490Z,94.71
2019-04-26T04:41:03.529Z,94.40
2019-04-26T04:42:03.478Z,94.61
2019-04-26T04:43:03.505Z,94.61
2019-04-26T04:44:03.447Z,94.71
2019-04-26T04:45:03.446Z,94.92
2019-04-26T04:46:03.745Z,95.12
2019-04-26T04:47:03.412Z,95.23
2019-04-26T04:48:03.404Z,95.02
2019-04-26T04:49:03.451Z,94.40
2019-04-26T04:50:03.397Z,94.81
2019-04-26T04:51:03.762Z,95.12
2019-04-26T04:52:03.356Z,95.23
2019-04-26T04:53:03.352Z,95.12
2019-04-26T04:54:03.336Z,95.23
2019-04-26T04:55:07.797Z,94.81
2019-04-26T04:56:03.664Z,94.71
2019-04-26T04:57:03.291Z,94.10
2019-04-26T04:58:03.287Z,93.79
2019-04-26T04:59:03.262Z,93.38
2019-04-26T05:00:03.275Z,93.27
2019-04-26T05:01:03.271Z,93.38
2019-04-26T05:02:03.255Z,93.38
2019-04-26T05:03:03.212Z,93.59
2019-04-26T05:04:03.231Z,93.59
2019-04-26T05:05:03.212Z,93.27
2019-04-26T05:06:07.536Z,92.97
2019-04-26T05:07:03.184Z,92.55
2019-04-26T05:08:06.654Z,92.46
2019-04-26T05:09:03.162Z,92.04
2019-04-26T05:10:03.162Z,91.94
2019-04-26T05:11:03.215Z,91.84
2019-04-26T05:12:03.145Z,92.14
2019-04-26T05:13:03.117Z,92.14
2019-04-26T05:14:03.116Z,92.10
2019-04-26T05:15:03.097Z,92.21
2019-04-26T05:16:03.174Z,91.28
2019-04-26T05:17:03.069Z,91.08
2019-04-26T05:18:03.063Z,91.28
2019-04-26T05:19:03.066Z,91.38
2019-04-26T05:20:03.022Z,91.28
2019-04-26T05:21:03.301Z,91.38
2019-04-26T05:22:03.009Z,90.83
2019-04-26T05:23:03.008Z,90.62
2019-04-26T05:24:02.998Z,90.46
2019-04-26T05:25:03.008Z,90.26
2019-04-26T05:26:02.983Z,90.67
2019-04-26T05:27:03.331Z,91.08
2019-04-26T05:28:02.954Z,91.08
2019-04-26T05:29:02.948Z,90.67
2019-04-26T05:30:02.930Z,90.97
2019-04-26T05:31:02.906Z,91.38
2019-04-26T05:32:03.348Z,91.49
2019-04-26T05:33:02.899Z,90.97
2019-04-26T05:34:02.918Z,91.38
2019-04-26T05:35:02.854Z,91.59
2019-04-26T05:36:02.867Z,91.08
2019-04-26T05:37:03.347Z,89.64
2019-04-26T05:38:02.847Z,90.16
2019-04-26T05:39:02.835Z,89.95
2019-04-26T05:40:02.823Z,89.54
2019-04-26T05:41:02.832Z,88.98
2019-04-26T05:42:02.848Z,89.90
2019-04-26T05:43:02.784Z,89.70
2019-04-26T05:44:02.779Z,89.70
2019-04-26T05:45:02.774Z,89.09
2019-04-26T05:46:02.735Z,88.37
2019-04-26T05:47:02.860Z,88.17
2019-04-26T05:48:10.720Z,88.27
2019-04-26T05:49:03.718Z,88.17
2019-04-26T05:50:02.709Z,88.17
2019-04-26T05:51:02.694Z,88.68
2019-04-26T05:52:02.958Z,88.27
2019-04-26T05:53:02.679Z,88.17
2019-04-26T05:54:02.662Z,88.17
2019-04-26T05:55:02.750Z,87.61
2019-04-26T05:56:02.658Z,87.71
2019-04-26T05:57:02.993Z,87.20
2019-04-26T05:58:02.926Z,87.10
2019-04-26T05:59:03.142Z,86.99
2019-04-26T06:00:02.611Z,87.10
2019-04-26T06:01:02.579Z,86.69
2019-04-26T06:02:03.003Z,87.16
2019-04-26T06:03:02.555Z,87.47
2019-04-26T06:04:02.674Z,87.47
2019-04-26T06:05:02.556Z,87.26
2019-04-26T06:06:05.237Z,87.67
2019-04-26T06:07:02.993Z,86.34
2019-04-26T06:08:03.038Z,86.55
2019-04-26T06:09:02.529Z,86.65
2019-04-26T06:10:03.117Z,86.10
2019-04-26T06:11:02.717Z,85.89
2019-04-26T06:12:02.487Z,85.69
2019-04-26T06:13:02.971Z,85.52
2019-04-26T06:14:02.440Z,86.10
2019-04-26T06:15:02.445Z,86.44
2019-04-26T06:16:02.477Z,86.34
2019-04-26T06:17:02.508Z,85.83
2019-04-26T06:18:02.399Z,85.42
2019-04-26T06:19:02.390Z,86.44
2019-04-26T06:20:02.634Z,85.31
2019-04-26T06:21:02.366Z,85.63
2019-04-26T06:22:02.611Z,85.25
2019-04-26T06:23:02.334Z,85.66
2019-04-26T06:24:02.346Z,86.69
2019-04-26T06:25:02.928Z,85.66
2019-04-26T06:26:03.398Z,85.77
2019-04-26T06:27:13.342Z,85.87
2019-04-26T06:28:03.317Z,86.18
2019-04-26T06:29:03.233Z,85.56
2019-04-26T06:30:03.336Z,85.87
2019-04-26T06:31:02.246Z,85.87
2019-04-26T06:32:02.658Z,85.77
2019-04-26T06:33:05.534Z,86.18
2019-04-26T06:34:03.005Z,86.38
2019-04-26T06:35:03.421Z,85.77
2019-04-26T06:36:02.254Z,85.87
2019-04-26T06:37:02.352Z,86.18
2019-04-26T06:38:03.921Z,86.38
2019-04-26T06:39:02.221Z,86.38
2019-04-26T06:40:02.308Z,85.77
2019-04-26T06:41:02.530Z,85.97
2019-04-26T06:42:02.900Z,86.18
2019-04-26T06:43:02.763Z,85.87
2019-04-26T06:44:02.725Z,86.58
2019-04-26T06:45:02.885Z,87.41
2019-04-26T06:46:02.694Z,86.58
2019-04-26T06:47:02.093Z,85.46
2019-04-26T06:48:02.199Z,85.77
2019-04-26T06:49:02.048Z,85.36
2019-04-26T06:50:02.054Z,86.28
2019-04-26T06:51:02.738Z,85.72
2019-04-26T06:52:02.584Z,86.58
2019-04-26T06:53:02.258Z,86.38
2019-04-26T06:54:01.991Z,86.96
2019-04-26T06:55:02.271Z,86.34
2019-04-26T06:56:02.918Z,86.44
2019-04-26T06:57:11.557Z,86.65
2019-04-26T06:58:03.308Z,87.06
2019-04-26T06:59:01.974Z,86.04
2019-04-26T07:00:02.313Z,86.04
2019-04-26T07:01:01.934Z,85.72
2019-04-26T07:02:02.927Z,85.93
2019-04-26T07:03:03.550Z,86.44
2019-04-26T07:04:02.116Z,86.85
2019-04-26T07:05:02.876Z,86.85
2019-04-26T07:06:02.482Z,84.91
2019-04-26T07:07:02.642Z,85.52
2019-04-26T07:08:03.309Z,85.83
2019-04-26T07:09:02.695Z,85.22
2019-04-26T07:10:02.035Z,86.14
2019-04-26T07:11:02.752Z,85.11
2019-04-26T07:12:02.874Z,85.93
2019-04-26T07:13:02.323Z,85.89
2019-04-26T07:14:02.694Z,85.48
2019-04-26T07:15:02.239Z,85.79
2019-04-26T07:16:16.056Z,84.87
2019-04-26T07:17:02.754Z,85.07
2019-04-26T07:18:02.169Z,85.79
2019-04-26T07:19:01.736Z,83.64
2019-04-26T07:20:03.988Z,82.10
2019-04-26T07:21:01.706Z,82.82
2019-04-26T07:22:02.009Z,83.64
2019-04-26T07:23:02.107Z,82.98
2019-04-26T07:24:02.777Z,83.09
2019-04-26T07:25:01.648Z,83.70
2019-04-26T07:26:01.727Z,82.64
2019-04-26T07:27:03.008Z,82.75
2019-04-26T07:28:06.026Z,82.23
2019-04-26T07:29:03.039Z,81.48
2019-04-26T07:30:03.264Z,80.87
2019-04-26T07:31:02.627Z,80.05
2019-04-26T07:32:02.278Z,80.46
2019-04-26T07:33:02.421Z,79.91
2019-04-26T07:34:02.374Z,78.72
2019-04-26T07:35:02.637Z,80.42
2019-04-26T07:36:02.740Z,80.07
2019-04-26T07:37:02.866Z,78.23
2019-04-26T07:38:02.631Z,78.20
2019-04-26T07:39:13.500Z,78.20
2019-04-26T07:40:02.971Z,77.45
2019-04-26T07:41:01.617Z,77.45
2019-04-26T07:42:01.781Z,77.82
2019-04-26T07:43:01.832Z,76.59
2019-04-26T07:44:02.761Z,75.48
2019-04-26T07:45:02.229Z,75.54
2019-04-26T07:46:02.916Z,75.95
2019-04-26T07:47:01.516Z,76.97
2019-04-26T07:48:03.153Z,74.35
2019-04-26T07:49:01.690Z,74.69
2019-04-26T07:50:03.512Z,76.36
2019-04-26T07:51:02.984Z,77.45
2019-04-26T07:52:02.779Z,76.84
2019-04-26T07:53:03.241Z,78.43
2019-04-26T07:54:02.285Z,76.09
2019-04-26T07:55:03.188Z,76.22
2019-04-26T07:56:02.299Z,77.00
2019-04-26T07:57:03.083Z,77.00
2019-04-26T07:58:01.332Z,76.39
2019-04-26T07:59:04.192Z,73.27
2019-04-26T08:00:01.290Z,74.93
2019-04-26T08:01:01.287Z,77.14
2019-04-26T08:02:01.278Z,77.04
2019-04-26T08:03:01.252Z,75.92
2019-04-26T08:04:01.613Z,76.32
2019-04-26T08:05:01.226Z,74.90
2019-04-26T08:06:01.221Z,76.53
2019-04-26T08:07:01.230Z,74.59
2019-04-26T08:08:01.200Z,74.29
2019-04-26T08:09:01.624Z,75.51
2019-04-26T08:10:01.191Z,77.65
2019-04-26T08:11:01.178Z,75.44
2019-04-26T08:12:01.177Z,75.24
2019-04-26T08:13:01.137Z,75.37
2019-04-26T08:14:01.638Z,76.29
2019-04-26T08:15:01.135Z,77.52
2019-04-26T08:16:01.109Z,75.99
2019-04-26T08:17:01.100Z,76.19
2019-04-26T08:18:01.079Z,75.89
2019-04-26T08:19:01.118Z,75.99
2019-04-26T08:20:01.087Z,76.40
2019-04-26T08:21:02.532Z,76.43
2019-04-26T08:22:14.827Z,76.81
2019-04-26T08:23:02.722Z,76.03
2019-04-26T08:24:01.132Z,76.81
2019-04-26T08:25:01.018Z,75.21
2019-04-26T08:26:09.077Z,75.68
2019-04-26T08:27:08.765Z,76.50
2019-04-26T08:28:01.985Z,76.29
2019-04-26T08:29:12.617Z,74.97
2019-04-26T08:30:03.485Z,74.76
2019-04-26T08:31:04.599Z,75.07
2019-04-26T08:32:00.942Z,73.84
2019-04-26T08:33:02.077Z,74.46
2019-04-26T08:34:01.948Z,75.17
2019-04-26T08:35:02.323Z,74.25
2019-04-26T08:36:01.915Z,74.56
2019-04-26T08:37:01.931Z,75.68
2019-04-26T08:38:00.901Z,75.68
2019-04-26T08:39:18.833Z,75.04
2019-04-26T08:40:00.855Z,75.24
2019-04-26T08:41:08.595Z,74.93
2019-04-26T08:42:01.668Z,74.49
2019-04-26T08:43:05.905Z,73.88
2019-04-26T08:44:03.744Z,73.88
2019-04-26T08:45:04.694Z,72.75
2019-04-26T08:46:03.483Z,71.91
2019-04-26T08:47:00.794Z,72.04
2019-04-26T08:48:00.783Z,74.79
2019-04-26T08:49:02.129Z,73.06
2019-04-26T08:50:00.789Z,73.77
2019-04-26T08:51:00.750Z,72.34
2019-04-26T08:52:00.735Z,73.13
2019-04-26T08:53:00.716Z,72.31
2019-04-26T08:54:00.960Z,71.50
2019-04-26T08:55:00.718Z,74.25
2019-04-26T08:56:00.728Z,72.21
2019-04-26T08:57:00.672Z,72.00
2019-04-26T08:58:00.673Z,73.74
2019-04-26T08:59:00.954Z,72.89
2019-04-26T09:00:00.657Z,73.40
2019-04-26T09:01:00.649Z,72.96
2019-04-26T09:02:00.618Z,71.91
2019-04-26T09:03:10.967Z,71.30
2019-04-26T09:04:02.022Z,70.99
2019-04-26T09:05:00.577Z,70.51
2019-04-26T09:06:00.577Z,71.53
2019-04-26T09:07:00.552Z,70.78
2019-04-26T09:08:00.558Z,71.91
2019-04-26T09:09:01.009Z,69.76
2019-04-26T09:10:01.555Z,69.67
2019-04-26T09:11:01.528Z,71.30
2019-04-26T09:12:03.872Z,71.06
2019-04-26T09:13:01.489Z,69.80
2019-04-26T09:14:00.998Z,68.79
2019-04-26T09:15:00.470Z,66.82
2019-04-26T09:16:00.535Z,68.52
2019-04-26T09:17:00.480Z,69.23
2019-04-26T09:18:02.165Z,68.32
2019-04-26T09:19:00.440Z,66.08
2019-04-26T09:20:07.195Z,66.82
2019-04-26T09:21:01.406Z,67.94
2019-04-26T09:22:12.538Z,67.71
2019-04-26T09:23:03.888Z,71.16
2019-04-26T09:24:00.598Z,65.84
2019-04-26T09:25:01.031Z,67.03
2019-04-26T09:26:00.365Z,66.32
2019-04-26T09:27:00.380Z,66.80
2019-04-26T09:28:00.363Z,65.74
2019-04-26T09:29:00.581Z,66.83
2019-04-26T09:30:00.533Z,67.03
2019-04-26T09:31:00.318Z,66.52
2019-04-26T09:32:00.287Z,69.06
2019-04-26T09:33:02.017Z,66.42
2019-04-26T09:34:00.686Z,65.51
2019-04-26T09:35:00.266Z,65.81
2019-04-26T09:36:00.250Z,67.94
2019-04-26T09:37:00.256Z,65.23
2019-04-26T09:38:00.234Z,66.46
2019-04-26T09:39:03.987Z,67.13
2019-04-26T09:40:09.999Z,66.76
2019-04-26T09:41:01.193Z,66.49
2019-04-26T09:42:01.136Z,67.19
2019-04-26T09:43:02.506Z,68.21
2019-04-26T09:44:00.668Z,67.22
2019-04-26T09:45:00.155Z,65.80
2019-04-26T09:46:00.128Z,66.82
2019-04-26T09:47:00.137Z,66.41
2019-04-26T09:48:00.099Z,66.52
2019-04-26T09:49:03.106Z,66.18
2019-04-26T09:50:01.118Z,65.13
2019-04-26T09:51:00.074Z,65.03
2019-04-26T09:52:00.177Z,66.32
2019-04-26T09:53:00.063Z,64.32
2019-04-26T09:54:00.043Z,65.23
2019-04-26T09:55:00.042Z,65.64
2019-04-26T09:56:00.030Z,64.83
2019-04-26T09:57:00.262Z,65.33
2019-04-26T09:58:00.028Z,65.54
2019-04-26T09:59:01.456Z,64.62
2019-04-26T10:00:01.033Z,66.25
2019-04-26T10:00:59.973Z,64.32
2019-04-26T10:02:00.322Z,67.06
2019-04-26T10:02:59.984Z,67.27
2019-04-26T10:03:59.988Z,65.94
2019-04-26T10:05:08.022Z,66.18
2019-04-26T10:05:59.934Z,65.26
2019-04-26T10:07:10.834Z,66.99
2019-04-26T10:07:59.911Z,66.92
2019-04-26T10:08:59.876Z,66.00
2019-04-26T10:10:00.934Z,67.66
2019-04-26T10:10:59.890Z,66.55
2019-04-26T10:11:59.880Z,66.65
2019-04-26T10:12:59.871Z,67.16
2019-04-26T10:13:59.849Z,68.01
2019-04-26T10:14:59.845Z,68.51
2019-04-26T10:16:02.491Z,68.68
2019-04-26T10:16:59.796Z,67.05
2019-04-26T10:17:59.839Z,66.35
2019-04-26T10:18:59.773Z,66.55
2019-04-26T10:19:59.821Z,67.36
2019-04-26T10:20:59.759Z,67.97
2019-04-26T10:21:59.763Z,68.96
2019-04-26T10:22:59.761Z,65.67
2019-04-26T10:23:59.739Z,66.99
2019-04-26T10:25:02.342Z,67.36
2019-04-26T10:26:00.695Z,66.83
2019-04-26T10:27:03.403Z,65.88
2019-04-26T10:28:00.697Z,64.46
2019-04-26T10:28:59.682Z,64.64
2019-04-26T10:30:07.751Z,67.03
2019-04-26T10:31:00.638Z,63.15
2019-04-26T10:31:59.631Z,63.15
2019-04-26T10:33:02.117Z,63.23
2019-04-26T10:33:59.595Z,62.99
2019-04-26T10:34:59.609Z,59.85
2019-04-26T10:35:59.588Z,61.78
2019-04-26T10:37:01.685Z,60.26
2019-04-26T10:38:01.014Z,61.65
2019-04-26T10:38:59.779Z,59.45
2019-04-26T10:39:59.561Z,59.12
2019-04-26T10:40:59.523Z,60.53
2019-04-26T10:41:59.539Z,61.72
2019-04-26T10:43:00.008Z,60.10
2019-04-26T10:43:59.495Z,58.86
2019-04-26T10:44:59.485Z,59.67
2019-04-26T10:45:59.493Z,60.38
2019-04-26T10:46:59.920Z,59.45
2019-04-26T10:47:59.516Z,60.66
2019-04-26T10:49:08.927Z,61.88
2019-04-26T10:50:00.416Z,60.53
2019-04-26T10:50:59.422Z,60.94
2019-04-26T10:51:59.421Z,63.21
2019-04-26T10:52:59.590Z,59.97
2019-04-26T10:54:01.765Z,60.05
2019-04-26T10:55:00.375Z,59.36
2019-04-26T10:55:59.408Z,57.29
2019-04-26T10:56:59.385Z,60.74
2019-04-26T10:57:59.654Z,61.01
2019-04-26T10:58:59.337Z,59.47
2019-04-26T10:59:59.347Z,58.86
2019-04-26T11:00:59.307Z,57.34
2019-04-26T11:01:59.332Z,58.78
2019-04-26T11:03:00.019Z,58.41
2019-04-26T11:03:59.307Z,60.46
2019-04-26T11:04:59.288Z,60.08
2019-04-26T11:05:59.277Z,59.20
2019-04-26T11:07:01.910Z,62.17
2019-04-26T11:07:59.247Z,59.94
2019-04-26T11:08:59.220Z,61.63
2019-04-26T11:09:59.224Z,62.48
2019-04-26T11:10:59.227Z,60.85
2019-04-26T11:11:59.182Z,63.11
2019-04-26T11:12:59.674Z,62.20
2019-04-26T11:13:59.152Z,62.94
2019-04-26T11:14:59.153Z,63.45
2019-04-26T11:16:02.468Z,63.55
2019-04-26T11:17:00.130Z,64.59
2019-04-26T11:17:59.187Z,64.18
2019-04-26T11:19:01.182Z,63.75
2019-04-26T11:19:59.102Z,62.74
2019-04-26T11:20:59.079Z,63.65
2019-04-26T11:21:59.082Z,63.34
2019-04-26T12:04:20.154Z,52.29
2019-04-26T12:05:20.080Z,55.14
2019-04-26T12:06:21.378Z,56.45
2019-04-26T12:07:20.074Z,56.18
2019-04-26T12:08:20.647Z,55.57
2019-04-26T12:09:20.040Z,55.90
2019-04-26T12:10:20.026Z,56.36
2019-04-26T12:11:26.225Z,57.54
2019-04-26T12:12:21.030Z,57.42
2019-04-26T12:13:21.257Z,55.90
2019-04-26T12:14:20.771Z,56.30
2019-04-26T12:15:30.100Z,56.20
2019-04-26T12:16:20.980Z,55.40
2019-04-26T12:17:19.956Z,54.61
2019-04-26T12:18:19.966Z,57.31
2019-04-26T12:19:20.323Z,54.69
2019-04-26T12:20:22.342Z,55.32
2019-04-26T12:21:20.953Z,55.80
2019-04-26T12:22:19.900Z,59.41
2019-04-26T12:23:21.770Z,56.38
2019-04-26T12:24:19.902Z,55.24
2019-04-26T12:25:19.894Z,55.34
2019-04-26T12:26:21.628Z,54.23
2019-04-26T12:27:19.918Z,54.05
2019-04-26T12:28:19.865Z,55.65
2019-04-26T12:29:20.293Z,57.62
2019-04-26T12:30:23.202Z,57.83
2019-04-26T12:31:20.827Z,57.32
2019-04-26T12:32:19.833Z,56.61
2019-04-26T12:33:19.789Z,56.82
2019-04-26T12:34:19.805Z,55.63
2019-04-26T12:35:19.786Z,58.29
2019-04-26T12:36:19.761Z,58.26
2019-04-26T12:37:21.051Z,59.65
2019-04-26T12:38:19.748Z,57.27
2019-04-26T12:39:19.813Z,54.53
2019-04-26T12:40:19.745Z,54.28
2019-04-26T12:41:25.314Z,54.16
2019-04-26T12:42:20.708Z,52.41
2019-04-26T12:43:20.198Z,54.10
2019-04-26T12:44:19.899Z,55.01
2019-04-26T12:45:19.643Z,54.10
2019-04-26T12:46:22.783Z,55.19
2019-04-26T12:47:20.653Z,56.98
2019-04-26T12:48:19.639Z,50.95
2019-04-26T12:49:20.236Z,52.87
2019-04-26T12:50:19.623Z,50.45
2019-04-26T12:51:19.604Z,54.46
2019-04-26T12:52:21.645Z,52.04
2019-04-26T12:53:19.560Z,50.12
2019-04-26T12:54:19.902Z,50.22
2019-04-26T12:55:20.227Z,52.14
2019-04-26T12:56:19.538Z,53.22
2019-04-26T12:57:19.537Z,51.51
2019-04-26T12:58:19.498Z,52.42
2019-04-26T12:59:22.359Z,50.62
2019-04-26T13:00:20.479Z,52.14
2019-04-26T13:01:19.485Z,53.52
2019-04-26T13:02:20.991Z,52.19
2019-04-26T13:03:20.733Z,51.40
2019-04-26T13:04:19.899Z,51.68
2019-04-26T13:05:20.593Z,51.71
2019-04-26T13:06:19.431Z,50.80
2019-04-26T13:07:23.731Z,53.09
2019-04-26T13:08:19.442Z,48.56
2019-04-26T13:09:21.877Z,52.09
2019-04-26T13:10:20.415Z,51.76
2019-04-26T13:11:19.385Z,51.89
2019-04-26T13:12:19.382Z,52.11
2019-04-26T13:13:19.358Z,50.42
2019-04-26T13:14:19.430Z,51.64
2019-04-26T13:15:19.335Z,53.14
2019-04-26T13:16:21.446Z,52.82
2019-04-26T13:17:20.339Z,50.73
2019-04-26T13:18:19.322Z,53.25
2019-04-26T13:19:20.004Z,52.04
2019-04-26T13:20:19.306Z,50.70
2019-04-26T13:21:19.301Z,50.88
2019-04-26T13:22:19.255Z,51.59
2019-04-26T13:23:19.238Z,51.79
2019-04-26T13:24:19.508Z,51.26
2019-04-26T13:25:26.246Z,52.47
2019-04-26T13:26:20.206Z,51.97
2019-04-26T13:27:19.201Z,51.26
2019-04-26T13:28:20.336Z,51.08
2019-04-26T13:29:19.554Z,52.62
2019-04-26T13:30:22.840Z,52.31
2019-04-26T13:31:20.184Z,52.54
2019-04-26T13:32:19.176Z,51.35
2019-04-26T13:33:19.144Z,51.58